sensor_id;sensor_type;location;lat;lon;timestamp;P1;durP1;ratioP1;P2;durP2;ratioP2
26622;SDS011;14254;50.968;5.366;2022-09-09T00:01:02;4.07;;;1.40;;
26622;SDS011;14254;50.968;5.366;2022-09-09T00:03:47;3.00;;;1.52;;
26622;SDS011;14254;50.968;5.366;2022-09-09T00:06:30;3.72;;;1.48;;
26622;SDS011;14254;50.968;5.366;2022-09-09T00:09:13;4.72;;;1.40;;
26622;SDS011;14254;50.968;5.366;2022-09-09T00:11:51;2.85;;;1.50;;
26622;SDS011;14254;50.968;5.366;2022-09-09T00:14:37;4.00;;;1.42;;
26622;SDS011;14254;50.968;5.366;2022-09-09T00:17:21;5.47;;;1.65;;
26622;SDS011;14254;50.968;5.366;2022-09-09T00:22:55;6.95;;;1.90;;
26622;SDS011;14254;50.968;5.366;2022-09-09T00:25:35;7.65;;;2.10;;
26622;SDS011;14254;50.968;5.366;2022-09-09T00:28:13;7.88;;;1.90;;
26622;SDS011;14254;50.968;5.366;2022-09-09T00:30:43;6.85;;;1.98;;
26622;SDS011;14254;50.968;5.366;2022-09-09T00:33:13;8.13;;;2.25;;
26622;SDS011;14254;50.968;5.366;2022-09-09T00:35:53;4.07;;;1.63;;
26622;SDS011;14254;50.968;5.366;2022-09-09T00:38:32;1.83;;;1.73;;
26622;SDS011;14254;50.968;5.366;2022-09-09T00:43:57;6.93;;;1.60;;
26622;SDS011;14254;50.968;5.366;2022-09-09T00:57:28;5.93;;;1.77;;
26622;SDS011;14254;50.968;5.366;2022-09-09T01:10:59;7.70;;;2.67;;
26622;SDS011;14254;50.968;5.366;2022-09-09T01:13:31;12.77;;;3.83;;
26622;SDS011;14254;50.968;5.366;2022-09-09T01:16:02;7.53;;;2.10;;
26622;SDS011;14254;50.968;5.366;2022-09-09T01:18:38;5.78;;;2.13;;
26622;SDS011;14254;50.968;5.366;2022-09-09T01:26:52;4.35;;;1.92;;
26622;SDS011;14254;50.968;5.366;2022-09-09T01:29:22;4.93;;;2.13;;
26622;SDS011;14254;50.968;5.366;2022-09-09T01:34:25;6.75;;;1.98;;
26622;SDS011;14254;50.968;5.366;2022-09-09T01:37:02;3.38;;;1.90;;
26622;SDS011;14254;50.968;5.366;2022-09-09T01:39:31;6.97;;;1.75;;
26622;SDS011;14254;50.968;5.366;2022-09-09T01:41:59;5.68;;;1.75;;
26622;SDS011;14254;50.968;5.366;2022-09-09T01:44:25;8.48;;;2.28;;
26622;SDS011;14254;50.968;5.366;2022-09-09T01:46:51;6.93;;;2.28;;
26622;SDS011;14254;50.968;5.366;2022-09-09T01:49:17;9.68;;;2.70;;
26622;SDS011;14254;50.968;5.366;2022-09-09T01:51:43;5.55;;;2.50;;
26622;SDS011;14254;50.968;5.366;2022-09-09T01:54:11;10.18;;;2.45;;
26622;SDS011;14254;50.968;5.366;2022-09-09T02:00:31;5.53;;;2.70;;
26622;SDS011;14254;50.968;5.366;2022-09-09T02:05:11;14.88;;;4.00;;
26622;SDS011;14254;50.968;5.366;2022-09-09T02:13:03;4.68;;;3.30;;
26622;SDS011;14254;50.968;5.366;2022-09-09T02:21:11;16.88;;;3.88;;
26622;SDS011;14254;50.968;5.366;2022-09-09T02:23:39;13.25;;;4.32;;
26622;SDS011;14254;50.968;5.366;2022-09-09T02:26:07;18.45;;;4.07;;
26622;SDS011;14254;50.968;5.366;2022-09-09T02:28:35;15.38;;;4.20;;
26622;SDS011;14254;50.968;5.366;2022-09-09T02:31:03;16.67;;;3.67;;
26622;SDS011;14254;50.968;5.366;2022-09-09T02:33:32;18.20;;;4.20;;
26622;SDS011;14254;50.968;5.366;2022-09-09T02:36:02;12.20;;;3.25;;
26622;SDS011;14254;50.968;5.366;2022-09-09T02:38:33;16.80;;;3.95;;
26622;SDS011;14254;50.968;5.366;2022-09-09T02:41:02;11.98;;;3.63;;
26622;SDS011;14254;50.968;5.366;2022-09-09T02:43:32;13.88;;;4.45;;
26622;SDS011;14254;50.968;5.366;2022-09-09T02:48:59;12.48;;;3.90;;
26622;SDS011;14254;50.968;5.366;2022-09-09T02:54:29;12.93;;;4.13;;
26622;SDS011;14254;50.968;5.366;2022-09-09T02:57:12;17.40;;;4.43;;
26622;SDS011;14254;50.968;5.366;2022-09-09T02:59:42;9.27;;;3.72;;
26622;SDS011;14254;50.968;5.366;2022-09-09T03:02:09;18.50;;;4.38;;
26622;SDS011;14254;50.968;5.366;2022-09-09T03:04:36;13.57;;;4.18;;
26622;SDS011;14254;50.968;5.366;2022-09-09T03:07:03;19.58;;;4.35;;
26622;SDS011;14254;50.968;5.366;2022-09-09T03:09:29;16.15;;;4.22;;
26622;SDS011;14254;50.968;5.366;2022-09-09T03:11:55;12.55;;;3.60;;
26622;SDS011;14254;50.968;5.366;2022-09-09T03:14:21;21.17;;;3.60;;
26622;SDS011;14254;50.968;5.366;2022-09-09T03:16:53;14.15;;;4.20;;
26622;SDS011;14254;50.968;5.366;2022-09-09T03:19:19;17.20;;;4.45;;
26622;SDS011;14254;50.968;5.366;2022-09-09T03:21:46;16.85;;;3.50;;
26622;SDS011;14254;50.968;5.366;2022-09-09T03:24:12;14.55;;;3.78;;
26622;SDS011;14254;50.968;5.366;2022-09-09T03:26:39;17.95;;;3.97;;
26622;SDS011;14254;50.968;5.366;2022-09-09T03:29:05;13.80;;;3.85;;
26622;SDS011;14254;50.968;5.366;2022-09-09T03:31:32;18.23;;;4.70;;
26622;SDS011;14254;50.968;5.366;2022-09-09T03:33:58;13.70;;;3.60;;
26622;SDS011;14254;50.968;5.366;2022-09-09T03:36:25;12.52;;;3.42;;
26622;SDS011;14254;50.968;5.366;2022-09-09T03:38:51;15.40;;;3.22;;
26622;SDS011;14254;50.968;5.366;2022-09-09T03:41:19;15.43;;;3.13;;
26622;SDS011;14254;50.968;5.366;2022-09-09T03:43:44;14.05;;;2.85;;
26622;SDS011;14254;50.968;5.366;2022-09-09T03:46:10;12.05;;;3.17;;
26622;SDS011;14254;50.968;5.366;2022-09-09T03:48:36;14.20;;;2.75;;
26622;SDS011;14254;50.968;5.366;2022-09-09T03:51:01;16.08;;;3.50;;
26622;SDS011;14254;50.968;5.366;2022-09-09T03:53:28;12.85;;;2.45;;
26622;SDS011;14254;50.968;5.366;2022-09-09T03:55:54;17.17;;;3.38;;
26622;SDS011;14254;50.968;5.366;2022-09-09T03:58:21;21.55;;;3.10;;
26622;SDS011;14254;50.968;5.366;2022-09-09T04:00:53;11.45;;;3.67;;
26622;SDS011;14254;50.968;5.366;2022-09-09T04:03:20;17.67;;;2.83;;
26622;SDS011;14254;50.968;5.366;2022-09-09T04:05:48;13.48;;;3.42;;
26622;SDS011;14254;50.968;5.366;2022-09-09T04:08:14;14.48;;;3.28;;
26622;SDS011;14254;50.968;5.366;2022-09-09T04:10:39;7.15;;;2.45;;
26622;SDS011;14254;50.968;5.366;2022-09-09T04:13:06;9.30;;;2.65;;
26622;SDS011;14254;50.968;5.366;2022-09-09T04:15:32;18.75;;;3.00;;
26622;SDS011;14254;50.968;5.366;2022-09-09T04:18:00;10.95;;;2.85;;
26622;SDS011;14254;50.968;5.366;2022-09-09T04:20:26;11.30;;;2.58;;
26622;SDS011;14254;50.968;5.366;2022-09-09T04:22:51;10.70;;;2.53;;
26622;SDS011;14254;50.968;5.366;2022-09-09T04:25:17;11.90;;;2.50;;
26622;SDS011;14254;50.968;5.366;2022-09-09T04:27:43;14.65;;;2.97;;
26622;SDS011;14254;50.968;5.366;2022-09-09T04:30:09;10.68;;;3.08;;
26622;SDS011;14254;50.968;5.366;2022-09-09T04:32:35;12.00;;;2.85;;
26622;SDS011;14254;50.968;5.366;2022-09-09T04:35:01;12.95;;;3.17;;
26622;SDS011;14254;50.968;5.366;2022-09-09T04:37:28;14.00;;;2.90;;
26622;SDS011;14254;50.968;5.366;2022-09-09T04:39:53;18.20;;;3.30;;
26622;SDS011;14254;50.968;5.366;2022-09-09T04:42:19;13.52;;;3.38;;
26622;SDS011;14254;50.968;5.366;2022-09-09T04:44:45;9.15;;;3.22;;
26622;SDS011;14254;50.968;5.366;2022-09-09T04:47:11;8.00;;;2.88;;
26622;SDS011;14254;50.968;5.366;2022-09-09T04:49:36;11.05;;;3.42;;
26622;SDS011;14254;50.968;5.366;2022-09-09T04:52:03;12.68;;;2.80;;
26622;SDS011;14254;50.968;5.366;2022-09-09T04:54:29;9.60;;;2.72;;
26622;SDS011;14254;50.968;5.366;2022-09-09T04:56:55;11.27;;;3.38;;
26622;SDS011;14254;50.968;5.366;2022-09-09T04:59:21;10.20;;;2.90;;
26622;SDS011;14254;50.968;5.366;2022-09-09T05:01:47;10.80;;;2.60;;
26622;SDS011;14254;50.968;5.366;2022-09-09T05:04:13;14.80;;;3.15;;
26622;SDS011;14254;50.968;5.366;2022-09-09T05:06:41;16.52;;;2.83;;
26622;SDS011;14254;50.968;5.366;2022-09-09T05:09:07;15.82;;;3.60;;
26622;SDS011;14254;50.968;5.366;2022-09-09T05:11:33;13.20;;;3.00;;
26622;SDS011;14254;50.968;5.366;2022-09-09T05:14:03;14.90;;;2.83;;
26622;SDS011;14254;50.968;5.366;2022-09-09T05:16:29;18.08;;;2.80;;
26622;SDS011;14254;50.968;5.366;2022-09-09T05:18:56;8.15;;;2.78;;
26622;SDS011;14254;50.968;5.366;2022-09-09T05:21:22;21.02;;;2.97;;
26622;SDS011;14254;50.968;5.366;2022-09-09T05:23:50;9.43;;;1.90;;
26622;SDS011;14254;50.968;5.366;2022-09-09T05:26:19;14.38;;;3.40;;
26622;SDS011;14254;50.968;5.366;2022-09-09T05:28:46;8.00;;;2.40;;
26622;SDS011;14254;50.968;5.366;2022-09-09T05:31:13;16.77;;;2.97;;
26622;SDS011;14254;50.968;5.366;2022-09-09T05:33:40;12.75;;;3.17;;
26622;SDS011;14254;50.968;5.366;2022-09-09T05:36:08;12.10;;;2.80;;
26622;SDS011;14254;50.968;5.366;2022-09-09T05:38:38;14.85;;;3.38;;
26622;SDS011;14254;50.968;5.366;2022-09-09T05:41:05;12.65;;;3.00;;
26622;SDS011;14254;50.968;5.366;2022-09-09T05:43:32;11.98;;;3.47;;
26622;SDS011;14254;50.968;5.366;2022-09-09T05:46:05;11.50;;;2.80;;
26622;SDS011;14254;50.968;5.366;2022-09-09T05:48:36;14.13;;;3.53;;
26622;SDS011;14254;50.968;5.366;2022-09-09T05:51:03;13.05;;;2.80;;
26622;SDS011;14254;50.968;5.366;2022-09-09T05:53:31;18.98;;;3.30;;
26622;SDS011;14254;50.968;5.366;2022-09-09T05:56:06;13.05;;;2.65;;
26622;SDS011;14254;50.968;5.366;2022-09-09T05:58:42;12.07;;;2.78;;
26622;SDS011;14254;50.968;5.366;2022-09-09T06:01:10;15.68;;;3.13;;
26622;SDS011;14254;50.968;5.366;2022-09-09T06:03:38;14.35;;;2.72;;
26622;SDS011;14254;50.968;5.366;2022-09-09T06:06:06;15.80;;;2.65;;
26622;SDS011;14254;50.968;5.366;2022-09-09T06:08:33;13.65;;;2.70;;
26622;SDS011;14254;50.968;5.366;2022-09-09T06:11:12;11.07;;;2.35;;
26622;SDS011;14254;50.968;5.366;2022-09-09T06:13:38;8.73;;;2.40;;
26622;SDS011;14254;50.968;5.366;2022-09-09T06:16:05;11.68;;;2.25;;
26622;SDS011;14254;50.968;5.366;2022-09-09T06:18:33;7.57;;;2.13;;
26622;SDS011;14254;50.968;5.366;2022-09-09T06:20:59;13.32;;;3.03;;
26622;SDS011;14254;50.968;5.366;2022-09-09T06:23:26;14.85;;;2.25;;
26622;SDS011;14254;50.968;5.366;2022-09-09T06:26:03;8.60;;;2.08;;
26622;SDS011;14254;50.968;5.366;2022-09-09T06:28:31;9.43;;;2.70;;
26622;SDS011;14254;50.968;5.366;2022-09-09T06:30:58;8.63;;;2.30;;
26622;SDS011;14254;50.968;5.366;2022-09-09T06:33:30;12.73;;;2.15;;
26622;SDS011;14254;50.968;5.366;2022-09-09T06:35:56;13.75;;;3.13;;
26622;SDS011;14254;50.968;5.366;2022-09-09T06:38:23;10.93;;;2.90;;
26622;SDS011;14254;50.968;5.366;2022-09-09T06:40:55;13.90;;;2.83;;
26622;SDS011;14254;50.968;5.366;2022-09-09T06:43:23;12.02;;;3.28;;
26622;SDS011;14254;50.968;5.366;2022-09-09T06:45:56;12.55;;;2.50;;
26622;SDS011;14254;50.968;5.366;2022-09-09T06:48:27;16.30;;;2.72;;
26622;SDS011;14254;50.968;5.366;2022-09-09T06:51:00;10.70;;;2.75;;
26622;SDS011;14254;50.968;5.366;2022-09-09T06:53:27;13.93;;;2.75;;
26622;SDS011;14254;50.968;5.366;2022-09-09T06:55:53;14.70;;;2.65;;
26622;SDS011;14254;50.968;5.366;2022-09-09T06:58:19;10.18;;;2.45;;
26622;SDS011;14254;50.968;5.366;2022-09-09T07:00:47;16.55;;;2.50;;
26622;SDS011;14254;50.968;5.366;2022-09-09T07:03:13;6.28;;;1.88;;
26622;SDS011;14254;50.968;5.366;2022-09-09T07:05:38;11.45;;;2.42;;
26622;SDS011;14254;50.968;5.366;2022-09-09T07:08:04;9.00;;;2.10;;
26622;SDS011;14254;50.968;5.366;2022-09-09T07:10:30;8.65;;;2.22;;
26622;SDS011;14254;50.968;5.366;2022-09-09T07:12:56;9.60;;;2.05;;
26622;SDS011;14254;50.968;5.366;2022-09-09T07:15:22;6.43;;;2.25;;
26622;SDS011;14254;50.968;5.366;2022-09-09T07:17:48;10.85;;;2.20;;
26622;SDS011;14254;50.968;5.366;2022-09-09T07:20:14;14.70;;;2.00;;
26622;SDS011;14254;50.968;5.366;2022-09-09T07:22:40;10.15;;;2.60;;
26622;SDS011;14254;50.968;5.366;2022-09-09T07:25:06;9.88;;;2.35;;
26622;SDS011;14254;50.968;5.366;2022-09-09T07:27:32;8.75;;;2.03;;
26622;SDS011;14254;50.968;5.366;2022-09-09T07:29:58;9.75;;;2.50;;
26622;SDS011;14254;50.968;5.366;2022-09-09T07:32:24;9.82;;;2.65;;
26622;SDS011;14254;50.968;5.366;2022-09-09T07:34:50;22.73;;;3.08;;
26622;SDS011;14254;50.968;5.366;2022-09-09T07:37:16;9.75;;;1.98;;
26622;SDS011;14254;50.968;5.366;2022-09-09T07:39:42;13.93;;;3.47;;
26622;SDS011;14254;50.968;5.366;2022-09-09T07:42:09;14.18;;;2.58;;
26622;SDS011;14254;50.968;5.366;2022-09-09T07:44:36;10.10;;;2.10;;
26622;SDS011;14254;50.968;5.366;2022-09-09T07:47:04;10.05;;;2.10;;
26622;SDS011;14254;50.968;5.366;2022-09-09T07:49:30;9.52;;;2.33;;
26622;SDS011;14254;50.968;5.366;2022-09-09T07:51:56;10.73;;;2.60;;
26622;SDS011;14254;50.968;5.366;2022-09-09T07:54:22;17.33;;;3.00;;
26622;SDS011;14254;50.968;5.366;2022-09-09T07:56:48;9.18;;;1.70;;
26622;SDS011;14254;50.968;5.366;2022-09-09T07:59:15;9.90;;;2.20;;
26622;SDS011;14254;50.968;5.366;2022-09-09T08:01:51;9.15;;;2.15;;
26622;SDS011;14254;50.968;5.366;2022-09-09T08:04:19;9.70;;;2.25;;
26622;SDS011;14254;50.968;5.366;2022-09-09T08:06:47;3.97;;;1.30;;
26622;SDS011;14254;50.968;5.366;2022-09-09T08:09:13;10.88;;;2.15;;
26622;SDS011;14254;50.968;5.366;2022-09-09T08:11:40;8.70;;;2.03;;
26622;SDS011;14254;50.968;5.366;2022-09-09T08:14:06;12.57;;;2.78;;
26622;SDS011;14254;50.968;5.366;2022-09-09T08:16:34;14.65;;;2.92;;
26622;SDS011;14254;50.968;5.366;2022-09-09T08:19:01;11.75;;;2.00;;
26622;SDS011;14254;50.968;5.366;2022-09-09T08:21:28;9.27;;;1.80;;
26622;SDS011;14254;50.968;5.366;2022-09-09T08:23:57;12.40;;;1.70;;
26622;SDS011;14254;50.968;5.366;2022-09-09T08:26:25;7.47;;;1.60;;
26622;SDS011;14254;50.968;5.366;2022-09-09T08:28:56;14.85;;;2.15;;
26622;SDS011;14254;50.968;5.366;2022-09-09T08:31:25;13.13;;;2.58;;
26622;SDS011;14254;50.968;5.366;2022-09-09T08:33:56;15.05;;;2.60;;
26622;SDS011;14254;50.968;5.366;2022-09-09T08:36:24;9.32;;;2.22;;
26622;SDS011;14254;50.968;5.366;2022-09-09T08:38:52;11.95;;;1.85;;
26622;SDS011;14254;50.968;5.366;2022-09-09T08:44:23;11.15;;;1.92;;
26622;SDS011;14254;50.968;5.366;2022-09-09T08:52:03;13.60;;;1.88;;
26622;SDS011;14254;50.968;5.366;2022-09-09T08:54:37;14.73;;;2.00;;
26622;SDS011;14254;50.968;5.366;2022-09-09T08:57:03;8.65;;;1.80;;
26622;SDS011;14254;50.968;5.366;2022-09-09T08:59:41;11.32;;;2.03;;
26622;SDS011;14254;50.968;5.366;2022-09-09T09:02:18;10.82;;;2.20;;
26622;SDS011;14254;50.968;5.366;2022-09-09T09:08:44;12.45;;;2.38;;
26622;SDS011;14254;50.968;5.366;2022-09-09T09:11:10;15.55;;;2.88;;
26622;SDS011;14254;50.968;5.366;2022-09-09T09:13:42;14.20;;;2.05;;
26622;SDS011;14254;50.968;5.366;2022-09-09T09:18:48;7.90;;;2.63;;
26622;SDS011;14254;50.968;5.366;2022-09-09T09:21:17;5.38;;;1.75;;
26622;SDS011;14254;50.968;5.366;2022-09-09T09:24:06;7.50;;;1.88;;
26622;SDS011;14254;50.968;5.366;2022-09-09T09:26:40;9.88;;;2.03;;
26622;SDS011;14254;50.968;5.366;2022-09-09T09:29:13;9.10;;;1.60;;
26622;SDS011;14254;50.968;5.366;2022-09-09T09:31:45;6.38;;;1.55;;
26622;SDS011;14254;50.968;5.366;2022-09-09T09:34:16;6.63;;;1.75;;
26622;SDS011;14254;50.968;5.366;2022-09-09T09:36:46;8.73;;;1.83;;
26622;SDS011;14254;50.968;5.366;2022-09-09T09:39:33;11.63;;;1.70;;
26622;SDS011;14254;50.968;5.366;2022-09-09T09:42:10;6.78;;;1.73;;
26622;SDS011;14254;50.968;5.366;2022-09-09T09:44:39;8.50;;;2.08;;
26622;SDS011;14254;50.968;5.366;2022-09-09T09:49:59;8.05;;;1.88;;
26622;SDS011;14254;50.968;5.366;2022-09-09T09:52:27;11.45;;;1.98;;
26622;SDS011;14254;50.968;5.366;2022-09-09T09:54:55;4.88;;;1.17;;
26622;SDS011;14254;50.968;5.366;2022-09-09T09:57:25;6.90;;;1.50;;
26622;SDS011;14254;50.968;5.366;2022-09-09T10:00:04;8.43;;;1.42;;
26622;SDS011;14254;50.968;5.366;2022-09-09T10:02:43;6.70;;;2.15;;
26622;SDS011;14254;50.968;5.366;2022-09-09T10:05:17;2.88;;;1.40;;
26622;SDS011;14254;50.968;5.366;2022-09-09T10:07:45;9.30;;;1.60;;
26622;SDS011;14254;50.968;5.366;2022-09-09T10:10:23;8.02;;;2.20;;
26622;SDS011;14254;50.968;5.366;2022-09-09T10:16:09;11.23;;;3.22;;
26622;SDS011;14254;50.968;5.366;2022-09-09T10:19:00;10.43;;;2.50;;
26622;SDS011;14254;50.968;5.366;2022-09-09T10:32:45;13.45;;;3.72;;
26622;SDS011;14254;50.968;5.366;2022-09-09T10:36:13;14.70;;;3.55;;
26622;SDS011;14254;50.968;5.366;2022-09-09T10:38:39;18.25;;;2.80;;
26622;SDS011;14254;50.968;5.366;2022-09-09T10:41:13;12.30;;;3.13;;
26622;SDS011;14254;50.968;5.366;2022-09-09T10:56:58;8.98;;;3.55;;
26622;SDS011;14254;50.968;5.366;2022-09-09T10:59:43;13.35;;;3.90;;
26622;SDS011;14254;50.968;5.366;2022-09-09T11:07:20;9.70;;;3.13;;
26622;SDS011;14254;50.968;5.366;2022-09-09T11:10:02;11.88;;;3.72;;
26622;SDS011;14254;50.968;5.366;2022-09-09T11:12:32;8.90;;;3.60;;
26622;SDS011;14254;50.968;5.366;2022-09-09T11:15:06;7.30;;;2.42;;
26622;SDS011;14254;50.968;5.366;2022-09-09T11:17:50;8.40;;;3.15;;
26622;SDS011;14254;50.968;5.366;2022-09-09T11:20:25;9.15;;;3.20;;
26622;SDS011;14254;50.968;5.366;2022-09-09T11:22:53;7.53;;;3.92;;
26622;SDS011;14254;50.968;5.366;2022-09-09T11:25:23;8.85;;;2.88;;
26622;SDS011;14254;50.968;5.366;2022-09-09T11:33:16;14.48;;;3.00;;
26622;SDS011;14254;50.968;5.366;2022-09-09T11:39:22;13.15;;;3.53;;
26622;SDS011;14254;50.968;5.366;2022-09-09T11:41:50;12.63;;;3.00;;
26622;SDS011;14254;50.968;5.366;2022-09-09T11:44:26;9.07;;;2.85;;
26622;SDS011;14254;50.968;5.366;2022-09-09T11:46:55;10.85;;;2.38;;
26622;SDS011;14254;50.968;5.366;2022-09-09T11:49:28;11.20;;;2.58;;
26622;SDS011;14254;50.968;5.366;2022-09-09T11:52:11;8.70;;;2.33;;
26622;SDS011;14254;50.968;5.366;2022-09-09T11:55:08;7.22;;;2.95;;
26622;SDS011;14254;50.968;5.366;2022-09-09T11:57:36;11.20;;;2.45;;
26622;SDS011;14254;50.968;5.366;2022-09-09T12:00:03;14.25;;;2.35;;
26622;SDS011;14254;50.968;5.366;2022-09-09T12:02:30;7.00;;;2.33;;
26622;SDS011;14254;50.968;5.366;2022-09-09T12:05:06;10.82;;;2.35;;
26622;SDS011;14254;50.968;5.366;2022-09-09T12:10:26;9.57;;;2.33;;
26622;SDS011;14254;50.968;5.366;2022-09-09T12:13:07;7.40;;;2.15;;
26622;SDS011;14254;50.968;5.366;2022-09-09T12:15:57;7.00;;;2.20;;
26622;SDS011;14254;50.968;5.366;2022-09-09T12:18:34;8.13;;;2.30;;
26622;SDS011;14254;50.968;5.366;2022-09-09T12:21:17;6.50;;;2.30;;
26622;SDS011;14254;50.968;5.366;2022-09-09T12:29:26;13.85;;;2.47;;
26622;SDS011;14254;50.968;5.366;2022-09-09T12:34:33;8.35;;;2.20;;
26622;SDS011;14254;50.968;5.366;2022-09-09T12:37:06;5.57;;;1.90;;
26622;SDS011;14254;50.968;5.366;2022-09-09T12:39:57;8.23;;;1.92;;
26622;SDS011;14254;50.968;5.366;2022-09-09T12:42:25;6.18;;;2.00;;
26622;SDS011;14254;50.968;5.366;2022-09-09T12:44:58;7.20;;;2.10;;
26622;SDS011;14254;50.968;5.366;2022-09-09T12:47:27;6.60;;;1.58;;
26622;SDS011;14254;50.968;5.366;2022-09-09T12:50:03;7.22;;;1.67;;
26622;SDS011;14254;50.968;5.366;2022-09-09T12:52:31;5.28;;;1.38;;
26622;SDS011;14254;50.968;5.366;2022-09-09T12:55:00;4.80;;;1.98;;
26622;SDS011;14254;50.968;5.366;2022-09-09T12:57:31;4.97;;;1.90;;
26622;SDS011;14254;50.968;5.366;2022-09-09T13:00:21;4.85;;;2.05;;
26622;SDS011;14254;50.968;5.366;2022-09-09T13:05:16;5.28;;;1.40;;
26622;SDS011;14254;50.968;5.366;2022-09-09T13:07:45;10.27;;;2.10;;
26622;SDS011;14254;50.968;5.366;2022-09-09T13:10:12;5.57;;;1.83;;
26622;SDS011;14254;50.968;5.366;2022-09-09T13:12:39;5.68;;;2.17;;
26622;SDS011;14254;50.968;5.366;2022-09-09T13:15:10;4.82;;;1.30;;
26622;SDS011;14254;50.968;5.366;2022-09-09T13:17:42;3.17;;;1.20;;
26622;SDS011;14254;50.968;5.366;2022-09-09T13:20:16;5.28;;;1.38;;
26622;SDS011;14254;50.968;5.366;2022-09-09T13:22:43;6.18;;;2.13;;
26622;SDS011;14254;50.968;5.366;2022-09-09T13:27:36;4.13;;;1.45;;
26622;SDS011;14254;50.968;5.366;2022-09-09T13:32:59;8.70;;;1.85;;
26622;SDS011;14254;50.968;5.366;2022-09-09T13:35:54;4.95;;;1.40;;
26622;SDS011;14254;50.968;5.366;2022-09-09T13:38:22;7.55;;;1.98;;
26622;SDS011;14254;50.968;5.366;2022-09-09T13:41:03;4.15;;;1.75;;
26622;SDS011;14254;50.968;5.366;2022-09-09T13:43:31;6.43;;;1.90;;
26622;SDS011;14254;50.968;5.366;2022-09-09T13:46:04;4.95;;;1.48;;
26622;SDS011;14254;50.968;5.366;2022-09-09T13:48:54;5.97;;;1.83;;
26622;SDS011;14254;50.968;5.366;2022-09-09T13:51:41;4.68;;;1.55;;
26622;SDS011;14254;50.968;5.366;2022-09-09T13:56:38;6.32;;;1.70;;
26622;SDS011;14254;50.968;5.366;2022-09-09T13:59:06;3.58;;;1.48;;
26622;SDS011;14254;50.968;5.366;2022-09-09T14:01:50;7.90;;;2.05;;
26622;SDS011;14254;50.968;5.366;2022-09-09T14:04:17;5.18;;;1.63;;
26622;SDS011;14254;50.968;5.366;2022-09-09T14:06:45;5.55;;;1.75;;
26622;SDS011;14254;50.968;5.366;2022-09-09T14:09:13;2.92;;;1.25;;
26622;SDS011;14254;50.968;5.366;2022-09-09T14:11:40;6.60;;;1.88;;
26622;SDS011;14254;50.968;5.366;2022-09-09T14:14:06;5.22;;;1.50;;
26622;SDS011;14254;50.968;5.366;2022-09-09T14:16:33;4.35;;;1.48;;
26622;SDS011;14254;50.968;5.366;2022-09-09T14:18:59;4.05;;;1.30;;
26622;SDS011;14254;50.968;5.366;2022-09-09T14:21:25;5.03;;;1.70;;
26622;SDS011;14254;50.968;5.366;2022-09-09T14:23:51;5.05;;;1.45;;
26622;SDS011;14254;50.968;5.366;2022-09-09T14:26:20;3.70;;;1.52;;
26622;SDS011;14254;50.968;5.366;2022-09-09T14:28:47;6.40;;;1.65;;
26622;SDS011;14254;50.968;5.366;2022-09-09T14:31:13;8.63;;;1.52;;
26622;SDS011;14254;50.968;5.366;2022-09-09T14:33:39;4.28;;;1.48;;
26622;SDS011;14254;50.968;5.366;2022-09-09T14:36:05;11.30;;;1.45;;
26622;SDS011;14254;50.968;5.366;2022-09-09T14:38:32;6.97;;;1.52;;
26622;SDS011;14254;50.968;5.366;2022-09-09T14:41:04;4.82;;;1.40;;
26622;SDS011;14254;50.968;5.366;2022-09-09T14:43:35;5.10;;;1.17;;
26622;SDS011;14254;50.968;5.366;2022-09-09T14:46:09;4.10;;;1.10;;
26622;SDS011;14254;50.968;5.366;2022-09-09T14:48:37;4.32;;;0.95;;
26622;SDS011;14254;50.968;5.366;2022-09-09T14:51:15;3.58;;;1.05;;
26622;SDS011;14254;50.968;5.366;2022-09-09T14:53:42;1.67;;;0.77;;
26622;SDS011;14254;50.968;5.366;2022-09-09T14:56:10;4.00;;;0.98;;
26622;SDS011;14254;50.968;5.366;2022-09-09T14:58:38;5.65;;;1.20;;
26622;SDS011;14254;50.968;5.366;2022-09-09T15:01:04;3.63;;;1.30;;
26622;SDS011;14254;50.968;5.366;2022-09-09T15:03:31;4.47;;;1.20;;
26622;SDS011;14254;50.968;5.366;2022-09-09T15:05:57;3.35;;;1.73;;
26622;SDS011;14254;50.968;5.366;2022-09-09T15:08:26;7.60;;;1.65;;
26622;SDS011;14254;50.968;5.366;2022-09-09T15:10:58;3.08;;;0.95;;
26622;SDS011;14254;50.968;5.366;2022-09-09T15:13:25;6.35;;;1.50;;
26622;SDS011;14254;50.968;5.366;2022-09-09T15:15:51;5.85;;;1.38;;
26622;SDS011;14254;50.968;5.366;2022-09-09T15:18:16;3.17;;;1.20;;
26622;SDS011;14254;50.968;5.366;2022-09-09T15:20:45;2.95;;;0.80;;
26622;SDS011;14254;50.968;5.366;2022-09-09T15:23:12;4.25;;;1.15;;
26622;SDS011;14254;50.968;5.366;2022-09-09T15:25:39;3.35;;;1.20;;
26622;SDS011;14254;50.968;5.366;2022-09-09T15:28:18;4.43;;;1.40;;
26622;SDS011;14254;50.968;5.366;2022-09-09T15:30:47;5.50;;;1.30;;
26622;SDS011;14254;50.968;5.366;2022-09-09T15:33:13;7.93;;;1.85;;
26622;SDS011;14254;50.968;5.366;2022-09-09T15:35:39;5.40;;;1.33;;
26622;SDS011;14254;50.968;5.366;2022-09-09T15:38:04;3.72;;;1.20;;
26622;SDS011;14254;50.968;5.366;2022-09-09T15:40:30;3.90;;;1.27;;
26622;SDS011;14254;50.968;5.366;2022-09-09T15:42:59;3.47;;;1.42;;
26622;SDS011;14254;50.968;5.366;2022-09-09T15:45:25;5.25;;;1.65;;
26622;SDS011;14254;50.968;5.366;2022-09-09T15:47:51;4.28;;;1.52;;
26622;SDS011;14254;50.968;5.366;2022-09-09T15:50:17;3.35;;;1.20;;
26622;SDS011;14254;50.968;5.366;2022-09-09T15:52:43;6.82;;;1.48;;
26622;SDS011;14254;50.968;5.366;2022-09-09T15:55:09;3.85;;;1.20;;
26622;SDS011;14254;50.968;5.366;2022-09-09T15:57:35;2.90;;;1.13;;
26622;SDS011;14254;50.968;5.366;2022-09-09T16:00:02;4.68;;;1.35;;
26622;SDS011;14254;50.968;5.366;2022-09-09T16:02:29;3.85;;;1.40;;
26622;SDS011;14254;50.968;5.366;2022-09-09T16:04:55;4.72;;;1.38;;
26622;SDS011;14254;50.968;5.366;2022-09-09T16:07:22;3.60;;;1.40;;
26622;SDS011;14254;50.968;5.366;2022-09-09T16:09:48;3.28;;;1.40;;
26622;SDS011;14254;50.968;5.366;2022-09-09T16:12:16;3.85;;;1.38;;
26622;SDS011;14254;50.968;5.366;2022-09-09T16:14:42;2.63;;;1.10;;
26622;SDS011;14254;50.968;5.366;2022-09-09T16:17:07;5.63;;;1.40;;
26622;SDS011;14254;50.968;5.366;2022-09-09T16:19:33;4.07;;;1.20;;
26622;SDS011;14254;50.968;5.366;2022-09-09T16:21:59;5.05;;;1.33;;
26622;SDS011;14254;50.968;5.366;2022-09-09T16:24:25;7.75;;;1.20;;
26622;SDS011;14254;50.968;5.366;2022-09-09T16:26:51;5.93;;;1.10;;
26622;SDS011;14254;50.968;5.366;2022-09-09T16:29:19;2.58;;;1.30;;
26622;SDS011;14254;50.968;5.366;2022-09-09T16:31:46;6.43;;;1.10;;
26622;SDS011;14254;50.968;5.366;2022-09-09T16:34:13;8.32;;;1.48;;
26622;SDS011;14254;50.968;5.366;2022-09-09T16:36:41;4.47;;;1.30;;
26622;SDS011;14254;50.968;5.366;2022-09-09T16:39:08;7.80;;;1.52;;
26622;SDS011;14254;50.968;5.366;2022-09-09T16:41:36;5.10;;;1.58;;
26622;SDS011;14254;50.968;5.366;2022-09-09T16:44:03;6.78;;;2.38;;
26622;SDS011;14254;50.968;5.366;2022-09-09T16:46:32;6.03;;;1.60;;
26622;SDS011;14254;50.968;5.366;2022-09-09T16:49:00;3.58;;;1.17;;
26622;SDS011;14254;50.968;5.366;2022-09-09T16:51:28;4.43;;;1.20;;
26622;SDS011;14254;50.968;5.366;2022-09-09T16:53:57;6.65;;;1.33;;
26622;SDS011;14254;50.968;5.366;2022-09-09T16:56:25;6.85;;;1.73;;
26622;SDS011;14254;50.968;5.366;2022-09-09T16:58:52;4.30;;;1.35;;
26622;SDS011;14254;50.968;5.366;2022-09-09T17:01:23;6.68;;;2.53;;
26622;SDS011;14254;50.968;5.366;2022-09-09T17:03:53;6.53;;;1.85;;
26622;SDS011;14254;50.968;5.366;2022-09-09T17:06:23;3.58;;;1.30;;
26622;SDS011;14254;50.968;5.366;2022-09-09T17:08:56;4.55;;;1.27;;
26622;SDS011;14254;50.968;5.366;2022-09-09T17:11:23;3.72;;;1.33;;
26622;SDS011;14254;50.968;5.366;2022-09-09T17:13:50;5.03;;;1.50;;
26622;SDS011;14254;50.968;5.366;2022-09-09T17:16:17;5.90;;;2.03;;
26622;SDS011;14254;50.968;5.366;2022-09-09T17:18:46;5.30;;;1.80;;